Portada
METAR-TAF:

METAR-TAF

Aeropuertos :

Zabol, Irán

latitud: 31-20N, longitud: 061-29E, altitud: 489 m

Observación

El informe se hizo hace 1 hora y 10 minutos, a las 06:00 UTC
Viento 12 kt del norte
Temperatura 20°C
Humedad 43%
Presión 1017 hPa
Visibilidad 10 km o más
sin nubes por debajo de 1500 m y sin presencia de cumulonimbus.

METAR: OIZB 080600Z 01012KT CAVOK 20/07 Q1017

Hora: 11:40 (07:10 UTC)


TAF: falta

Observaciones y pronósticos meteorológicos de más de 4000 aeropuertos (mensajes METAR y TAF).

Los puntos amarillos y rojos representan las estaciones disponibles.

Ponga el ratón en el punto deseado para ver el nombre de la estación.

Haga clic para ver las observaciones y los pronósticos meteorológicos.

Para cambiar el mapa : haga clic en los botones verdes con una cruz de color negro para hacer un zoom, en el botón verde con un guión para alejar o en las flechas verdes para mapas adyacentes.


METAR-TAF: